createdAt,value
2022-08-04T00:01:51.956Z,2.22
2022-08-04T00:04:48.468Z,2.10
2022-08-04T00:07:44.977Z,1.92
2022-08-04T00:10:12.413Z,2.20
2022-08-04T00:12:45.366Z,2.30
2022-08-04T00:15:14.895Z,2.08
2022-08-04T00:17:51.892Z,2.00
2022-08-04T00:20:19.356Z,2.25
2022-08-04T00:22:46.857Z,2.72
2022-08-04T00:25:13.986Z,2.17
2022-08-04T00:27:41.225Z,2.40
2022-08-04T00:30:08.574Z,2.08
2022-08-04T00:32:35.642Z,2.47
2022-08-04T00:35:02.993Z,2.10
2022-08-04T00:37:30.041Z,2.15
2022-08-04T00:39:57.241Z,2.30
2022-08-04T00:42:36.761Z,2.20
2022-08-04T00:45:04.043Z,2.20
2022-08-04T00:47:50.101Z,2.50
2022-08-04T00:50:29.113Z,3.90
2022-08-04T00:52:56.165Z,2.45
2022-08-04T00:55:37.496Z,2.42
2022-08-04T00:58:11.333Z,2.50
2022-08-04T01:00:58.668Z,2.30
2022-08-04T01:03:44.565Z,2.58
2022-08-04T01:06:30.735Z,2.30
2022-08-04T01:09:03.707Z,2.40
2022-08-04T01:11:56.273Z,2.50
2022-08-04T01:14:42.669Z,5.80
2022-08-04T01:17:22.738Z,2.90
2022-08-04T01:19:49.952Z,3.05
2022-08-04T01:22:32.314Z,3.08
2022-08-04T01:25:11.306Z,3.08
2022-08-04T01:27:41.103Z,2.83
2022-08-04T01:30:08.843Z,2.40
2022-08-04T01:32:39.397Z,2.80
2022-08-04T01:37:40.897Z,2.70
2022-08-04T01:40:08.542Z,2.65
2022-08-04T01:42:36.267Z,2.85
2022-08-04T01:45:04.323Z,3.28
2022-08-04T01:47:31.496Z,2.97
2022-08-04T01:50:01.916Z,2.85
2022-08-04T01:54:55.956Z,2.97
2022-08-04T01:57:38.903Z,3.03
2022-08-04T02:00:06.841Z,3.00
2022-08-04T02:02:34.549Z,2.97
2022-08-04T02:05:01.696Z,3.03
2022-08-04T02:07:31.821Z,3.08
2022-08-04T02:10:05.163Z,3.33
2022-08-04T02:12:34.994Z,2.85
2022-08-04T02:15:08.069Z,2.70
2022-08-04T02:17:43.874Z,3.13
2022-08-04T02:20:13.556Z,2.90
2022-08-04T02:22:41.808Z,3.22
2022-08-04T02:25:09.412Z,3.30
2022-08-04T02:27:59.906Z,2.80
2022-08-04T02:30:29.878Z,2.90
2022-08-04T02:32:57.006Z,3.22
2022-08-04T02:35:27.874Z,3.22
2022-08-04T02:37:58.289Z,3.30
2022-08-04T02:42:52.301Z,3.03
2022-08-04T02:45:20.138Z,2.72
2022-08-04T02:48:30.481Z,2.88
2022-08-04T02:50:35.503Z,2.88
2022-08-04T02:53:03.411Z,3.22
2022-08-04T02:55:37.032Z,3.20
2022-08-04T02:58:04.732Z,3.30
2022-08-04T03:00:31.911Z,3.30
2022-08-04T03:03:02.116Z,2.55
2022-08-04T03:05:54.171Z,2.95
2022-08-04T03:08:20.427Z,3.00
2022-08-04T03:10:56.637Z,3.13
2022-08-04T03:13:23.677Z,3.00
2022-08-04T03:15:59.620Z,3.22
2022-08-04T03:18:38.578Z,3.35
2022-08-04T03:21:24.451Z,3.38
2022-08-04T03:24:01.314Z,3.45
2022-08-04T03:26:28.374Z,3.30
2022-08-04T03:29:04.556Z,3.25
2022-08-04T03:31:46.652Z,3.30
2022-08-04T03:34:18.565Z,3.42
2022-08-04T03:37:07.328Z,3.60
2022-08-04T03:39:37.453Z,3.25
2022-08-04T03:42:13.096Z,3.55
2022-08-04T03:44:57.995Z,3.90
2022-08-04T03:47:44.547Z,3.45
2022-08-04T03:50:30.699Z,3.58
2022-08-04T03:53:09.711Z,3.63
2022-08-04T03:55:39.841Z,3.60
2022-08-04T03:58:09.913Z,3.90
2022-08-04T04:00:36.944Z,3.85
2022-08-04T04:03:26.715Z,3.80
2022-08-04T04:06:00.329Z,4.00
2022-08-04T04:08:32.947Z,3.55
2022-08-04T04:13:30.770Z,3.75
2022-08-04T04:15:57.780Z,3.28
2022-08-04T04:18:30.579Z,3.75
2022-08-04T04:20:59.438Z,4.00
2022-08-04T04:23:27.405Z,4.00
2022-08-04T04:26:00.528Z,4.55
2022-08-04T04:28:45.865Z,3.30
2022-08-04T04:31:19.716Z,7.70
2022-08-04T04:33:59.034Z,4.00
2022-08-04T04:36:26.086Z,3.53
2022-08-04T04:39:11.744Z,3.90
2022-08-04T04:41:46.780Z,4.05
2022-08-04T04:44:30.425Z,4.07
2022-08-04T04:47:03.920Z,4.28
2022-08-04T04:49:35.767Z,4.32
2022-08-04T04:52:21.559Z,3.75
2022-08-04T04:54:48.581Z,3.67
2022-08-04T04:57:16.552Z,3.78
2022-08-04T04:59:47.217Z,4.20
2022-08-04T05:02:33.016Z,4.03
2022-08-04T05:05:06.155Z,3.83
2022-08-04T05:07:42.347Z,3.78
2022-08-04T05:10:09.349Z,3.88
2022-08-04T05:14:32.648Z,3.83
2022-08-04T05:15:31.676Z,3.67
2022-08-04T05:17:58.703Z,3.53
2022-08-04T05:20:35.257Z,4.03
2022-08-04T05:23:09.991Z,3.53
2022-08-04T05:25:41.829Z,3.78
2022-08-04T05:28:34.250Z,4.20
2022-08-04T05:31:02.274Z,3.53
2022-08-04T05:33:40.951Z,3.38
2022-08-04T05:36:18.734Z,3.58
2022-08-04T05:38:51.861Z,3.40
2022-08-04T05:41:18.919Z,3.63
2022-08-04T05:43:46.009Z,3.45
2022-08-04T05:46:13.074Z,3.60
2022-08-04T05:48:40.142Z,3.10
2022-08-04T05:51:07.155Z,3.33
2022-08-04T05:53:34.176Z,3.30
2022-08-04T05:56:01.240Z,3.10
2022-08-04T05:58:30.867Z,3.28
2022-08-04T06:00:59.417Z,3.20
2022-08-04T06:03:26.462Z,3.47
2022-08-04T06:05:53.490Z,2.55
2022-08-04T06:08:20.558Z,4.10
2022-08-04T06:10:47.576Z,2.63
2022-08-04T06:13:47.643Z,2.75
2022-08-04T06:16:01.890Z,4.65
2022-08-04T06:18:32.959Z,3.58
2022-08-04T06:21:01.378Z,3.30
2022-08-04T06:23:30.614Z,3.57
2022-08-04T06:25:57.948Z,2.80
2022-08-04T06:28:25.017Z,2.58
2022-08-04T06:30:53.010Z,2.85
2022-08-04T06:33:54.493Z,2.72
2022-08-04T06:36:22.221Z,2.30
2022-08-04T06:38:58.261Z,2.50
2022-08-04T06:41:25.920Z,2.35
2022-08-04T06:43:53.042Z,2.35
2022-08-04T06:46:20.182Z,2.10
2022-08-04T06:48:47.388Z,1.98
2022-08-04T06:51:30.734Z,2.00
2022-08-04T06:54:01.826Z,2.03
2022-08-04T06:56:29.196Z,1.90
2022-08-04T06:58:56.292Z,1.98
2022-08-04T07:01:23.415Z,1.90
2022-08-04T07:03:50.619Z,2.20
2022-08-04T07:06:18.950Z,1.60
2022-08-04T07:08:46.071Z,1.73
2022-08-04T07:11:13.142Z,1.80
2022-08-04T07:13:44.855Z,1.75
2022-08-04T07:16:13.960Z,1.77
2022-08-04T07:18:41.023Z,1.53
2022-08-04T07:21:08.056Z,1.58
2022-08-04T07:23:35.163Z,1.70
2022-08-04T07:26:12.208Z,1.85
2022-08-04T07:28:40.748Z,1.40
2022-08-04T07:31:07.845Z,1.40
2022-08-04T07:33:34.851Z,1.52
2022-08-04T07:36:09.527Z,1.27
2022-08-04T07:38:48.709Z,1.60
2022-08-04T07:41:36.662Z,1.65
2022-08-04T07:44:04.198Z,1.55
2022-08-04T07:46:31.653Z,1.60
2022-08-04T07:49:00.094Z,1.55
2022-08-04T07:51:27.514Z,1.35
2022-08-04T07:53:56.486Z,1.50
2022-08-04T07:56:23.750Z,1.33
2022-08-04T07:58:50.835Z,1.55
2022-08-04T08:01:17.889Z,2.10
2022-08-04T08:03:44.984Z,3.15
2022-08-04T08:06:31.156Z,1.60
2022-08-04T08:09:13.645Z,2.15
2022-08-04T08:12:35.579Z,1.50
2022-08-04T08:14:28.961Z,1.10
2022-08-04T08:16:55.988Z,1.25
2022-08-04T08:19:23.009Z,1.20
2022-08-04T08:21:58.956Z,1.27
2022-08-04T08:24:27.611Z,1.17
2022-08-04T08:26:55.834Z,1.60
2022-08-04T08:29:22.952Z,1.38
2022-08-04T08:31:56.303Z,1.45
2022-08-04T08:34:27.602Z,1.40
2022-08-04T08:37:07.452Z,1.80
2022-08-04T08:40:00.561Z,1.10
2022-08-04T08:42:30.589Z,1.10
2022-08-04T08:45:12.656Z,1.30
2022-08-04T08:48:05.919Z,1.27
2022-08-04T08:53:23.759Z,1.00
2022-08-04T08:55:50.799Z,1.05
2022-08-04T08:58:39.340Z,0.98
2022-08-04T09:01:25.249Z,1.30
2022-08-04T09:04:22.764Z,0.93
2022-08-04T09:09:18.365Z,1.05
2022-08-04T09:12:04.374Z,1.20
2022-08-04T09:14:42.535Z,1.42
2022-08-04T09:17:14.836Z,1.15
2022-08-04T09:19:53.588Z,1.00
2022-08-04T09:25:01.340Z,0.93
2022-08-04T09:27:32.893Z,1.02
2022-08-04T09:30:03.028Z,1.15
2022-08-04T09:32:39.291Z,1.08
2022-08-04T09:35:25.075Z,1.00
2022-08-04T09:38:03.389Z,1.20
2022-08-04T09:40:53.487Z,1.17
2022-08-04T09:43:57.022Z,0.98
2022-08-04T09:46:18.744Z,0.93
2022-08-04T09:48:55.041Z,1.13
2022-08-04T09:51:26.469Z,0.98
2022-08-04T09:54:32.725Z,1.35
2022-08-04T09:57:18.169Z,1.10
2022-08-04T09:59:54.943Z,1.20
2022-08-04T10:02:22.817Z,1.10
2022-08-04T10:04:50.146Z,1.17
2022-08-04T10:07:19.939Z,0.82
2022-08-04T10:10:02.492Z,0.95
2022-08-04T10:12:48.072Z,1.23
2022-08-04T10:15:20.753Z,1.00
2022-08-04T10:17:54.478Z,1.10
2022-08-04T10:20:44.503Z,1.10
2022-08-04T10:23:12.342Z,1.38
2022-08-04T10:26:06.936Z,1.00
2022-08-04T10:28:45.330Z,0.98
2022-08-04T10:31:14.091Z,1.00
2022-08-04T10:36:10.021Z,0.80
2022-08-04T10:38:40.605Z,1.00
2022-08-04T10:41:28.648Z,1.10
2022-08-04T10:44:02.262Z,0.93
2022-08-04T10:46:32.027Z,1.10
2022-08-04T10:49:05.865Z,1.13
2022-08-04T10:51:58.816Z,0.90
2022-08-04T10:54:32.445Z,0.90
2022-08-04T10:57:05.848Z,1.13
2022-08-04T10:59:39.389Z,0.82
2022-08-04T11:02:16.316Z,0.93
2022-08-04T11:04:48.376Z,0.80
2022-08-04T11:07:15.413Z,1.20
2022-08-04T11:09:42.579Z,1.00
2022-08-04T11:12:15.738Z,1.15
2022-08-04T11:14:45.279Z,1.20
2022-08-04T11:17:15.044Z,1.10
2022-08-04T11:19:46.358Z,1.15
2022-08-04T11:22:18.029Z,1.10
2022-08-04T11:24:53.172Z,1.08
2022-08-04T11:27:21.690Z,0.95
2022-08-04T11:30:02.192Z,1.10
2022-08-04T11:32:36.721Z,0.95
2022-08-04T11:35:04.851Z,0.90
2022-08-04T11:37:47.801Z,1.23
2022-08-04T11:40:17.130Z,1.10
2022-08-04T11:42:48.790Z,1.10
2022-08-04T11:45:16.534Z,1.38
2022-08-04T11:48:00.594Z,1.20
2022-08-04T11:50:38.222Z,1.30
2022-08-04T11:53:05.482Z,1.17
2022-08-04T11:55:32.582Z,1.10
2022-08-04T11:58:20.633Z,1.13
2022-08-04T12:01:15.253Z,1.10
2022-08-04T12:04:03.529Z,1.20
2022-08-04T12:06:33.336Z,1.20
2022-08-04T12:11:36.568Z,1.10
2022-08-04T12:14:05.405Z,1.30
2022-08-04T12:16:35.417Z,1.20
2022-08-04T12:19:03.521Z,1.45
2022-08-04T12:21:53.365Z,1.30
2022-08-04T12:24:24.451Z,1.20
2022-08-04T12:26:54.034Z,1.42
2022-08-04T12:29:21.075Z,1.10
2022-08-04T12:31:54.239Z,1.20
2022-08-04T12:34:21.240Z,1.60
2022-08-04T12:37:10.249Z,1.10
2022-08-04T12:39:37.520Z,1.15
2022-08-04T12:42:29.092Z,1.23
2022-08-04T12:44:56.138Z,1.42
2022-08-04T12:47:29.288Z,1.48
2022-08-04T12:50:00.690Z,1.30
2022-08-04T12:52:51.691Z,1.20
2022-08-04T12:55:15.612Z,1.30
2022-08-04T12:57:42.718Z,1.13
2022-08-04T13:00:10.776Z,1.17
2022-08-04T13:02:41.251Z,1.20
2022-08-04T13:05:08.535Z,1.33
2022-08-04T13:07:37.052Z,1.20
2022-08-04T13:10:18.278Z,1.20
2022-08-04T13:12:53.593Z,1.23
2022-08-04T13:15:23.934Z,1.20
2022-08-04T13:17:59.338Z,1.35
2022-08-04T13:20:27.225Z,1.17
2022-08-04T13:22:58.936Z,1.58
2022-08-04T13:26:45.099Z,1.50
2022-08-04T13:28:16.576Z,1.20
2022-08-04T13:30:47.377Z,1.30
2022-08-04T13:33:14.388Z,1.38
2022-08-04T13:35:56.036Z,1.40
2022-08-04T13:38:23.669Z,1.05
2022-08-04T13:40:50.711Z,1.00
2022-08-04T13:44:15.455Z,0.90
2022-08-04T13:46:28.119Z,1.20
2022-08-04T13:49:23.577Z,1.20
2022-08-04T13:51:57.808Z,1.10
2022-08-04T13:54:26.253Z,1.20
2022-08-04T13:56:56.876Z,1.00
2022-08-04T13:59:25.880Z,1.20
2022-08-04T14:01:57.890Z,1.20
2022-08-04T14:04:26.232Z,1.20
2022-08-04T14:07:02.420Z,1.00
2022-08-04T14:09:35.855Z,1.10
2022-08-04T14:12:38.186Z,0.90
2022-08-04T14:14:57.564Z,1.00
2022-08-04T14:17:30.266Z,1.10
2022-08-04T14:19:58.557Z,1.13
2022-08-04T14:22:28.849Z,1.40
2022-08-04T14:24:59.220Z,1.10
2022-08-04T14:27:26.676Z,1.50
2022-08-04T14:29:53.694Z,1.30
2022-08-04T14:32:25.749Z,1.55
2022-08-04T14:34:53.403Z,0.95
2022-08-04T14:37:22.413Z,1.17
2022-08-04T14:40:17.495Z,0.98
2022-08-04T14:42:41.989Z,1.10
2022-08-04T14:45:09.306Z,1.30
2022-08-04T14:47:52.924Z,1.23
2022-08-04T14:50:20.340Z,1.27
2022-08-04T14:52:47.354Z,1.10
2022-08-04T14:55:21.411Z,1.35
2022-08-04T14:58:35.570Z,1.25
2022-08-04T15:00:36.602Z,1.58
2022-08-04T15:03:10.475Z,1.30
2022-08-04T15:05:59.979Z,1.20
2022-08-04T15:08:31.176Z,1.30
2022-08-04T15:10:59.392Z,1.10
2022-08-04T15:13:26.949Z,1.30
2022-08-04T15:16:07.253Z,1.40
2022-08-04T15:18:34.726Z,1.75
2022-08-04T15:21:02.190Z,1.48
2022-08-04T15:23:38.447Z,1.50
2022-08-04T15:26:07.273Z,1.15
2022-08-04T15:28:34.401Z,1.45
2022-08-04T15:31:01.773Z,1.30
2022-08-04T15:33:29.017Z,1.20
2022-08-04T15:36:17.313Z,1.50
2022-08-04T15:39:05.226Z,1.30
2022-08-04T15:41:34.796Z,1.75
2022-08-04T15:44:18.933Z,1.10
2022-08-04T15:47:06.674Z,1.42
2022-08-04T15:49:33.699Z,1.20
2022-08-04T15:52:04.672Z,1.20
2022-08-04T15:57:06.902Z,1.50
2022-08-04T15:59:52.708Z,1.38
2022-08-04T16:02:35.107Z,1.30
2022-08-04T16:05:18.573Z,1.40
2022-08-04T16:08:04.564Z,1.40
2022-08-04T16:10:31.646Z,1.10
2022-08-04T16:13:31.426Z,1.30
2022-08-04T16:16:03.282Z,1.27
2022-08-04T16:18:31.219Z,1.05
2022-08-04T16:21:00.607Z,1.42
2022-08-04T16:23:54.346Z,1.15
2022-08-04T16:26:45.416Z,1.40
2022-08-04T16:29:28.472Z,1.50
2022-08-04T16:32:11.688Z,1.35
2022-08-04T16:34:48.926Z,1.35
2022-08-04T16:37:18.772Z,1.30
2022-08-04T16:39:50.893Z,1.25
2022-08-04T16:42:30.878Z,1.40
2022-08-04T16:45:02.218Z,1.00
2022-08-04T16:48:02.404Z,1.02
2022-08-04T16:50:29.692Z,1.42
2022-08-04T16:52:56.729Z,1.08
2022-08-04T16:55:26.945Z,1.38
2022-08-04T16:57:55.087Z,1.10
2022-08-04T17:00:29.682Z,1.90
2022-08-04T17:02:57.605Z,1.25
2022-08-04T17:05:38.183Z,1.42
2022-08-04T17:08:28.537Z,1.20
2022-08-04T17:10:54.153Z,1.10
2022-08-04T17:14:01.983Z,1.58
2022-08-04T17:16:18.394Z,1.42
2022-08-04T17:18:46.439Z,1.10
2022-08-04T17:21:19.462Z,1.20
2022-08-04T17:24:15.062Z,1.17
2022-08-04T17:26:40.516Z,1.33
2022-08-04T17:29:09.154Z,1.05
2022-08-04T17:31:38.058Z,1.27
2022-08-04T17:34:26.459Z,1.40
2022-08-04T17:36:53.630Z,1.25
2022-08-04T17:39:23.238Z,1.17
2022-08-04T17:41:55.783Z,1.52
2022-08-04T17:44:35.115Z,1.70
2022-08-04T17:47:12.485Z,1.52
2022-08-04T17:49:52.752Z,1.55
2022-08-04T17:52:45.270Z,1.70
2022-08-04T17:55:16.657Z,1.42
2022-08-04T17:57:52.249Z,1.27
2022-08-04T18:00:20.098Z,1.38
2022-08-04T18:02:53.149Z,1.13
2022-08-04T18:05:27.194Z,1.27
2022-08-04T18:08:38.802Z,1.27
2022-08-04T18:11:02.331Z,1.25
2022-08-04T18:13:29.575Z,1.20
2022-08-04T18:16:04.898Z,1.50
2022-08-04T18:18:32.855Z,1.30
2022-08-04T18:21:02.817Z,1.20
2022-08-04T18:23:32.224Z,1.27
2022-08-04T18:26:01.857Z,1.35
2022-08-04T18:31:16.776Z,1.20
2022-08-04T18:33:43.922Z,1.13
2022-08-04T18:36:33.427Z,1.23
2022-08-04T18:39:12.720Z,1.27
2022-08-04T18:42:00.994Z,1.33
2022-08-04T18:44:51.808Z,1.23
2022-08-04T18:47:23.032Z,1.00
2022-08-04T18:50:59.524Z,1.33
2022-08-04T18:52:42.914Z,1.65
2022-08-04T18:58:01.067Z,1.75
2022-08-04T19:00:32.975Z,1.40
2022-08-04T19:03:01.633Z,1.80
2022-08-04T19:05:37.779Z,1.70
2022-08-04T19:08:32.486Z,1.60
2022-08-04T19:10:59.878Z,1.50
2022-08-04T19:13:27.746Z,1.48
2022-08-04T19:15:54.839Z,1.38
2022-08-04T19:18:25.770Z,2.50
2022-08-04T19:20:55.200Z,1.55
2022-08-04T19:24:29.005Z,1.42
2022-08-04T19:26:23.611Z,1.92
2022-08-04T19:28:55.495Z,1.60
2022-08-04T19:31:28.210Z,1.40
2022-08-04T19:34:04.941Z,1.75
2022-08-04T19:36:34.530Z,1.20
2022-08-04T19:39:02.260Z,1.40
2022-08-04T19:42:04.649Z,1.52
2022-08-04T19:44:23.602Z,1.67
2022-08-04T19:46:51.197Z,1.30
2022-08-04T19:50:02.812Z,1.40
2022-08-04T19:52:07.625Z,1.98
2022-08-04T19:54:34.641Z,1.67
2022-08-04T19:57:02.261Z,4.00
2022-08-04T19:59:32.416Z,2.30
2022-08-04T20:01:59.532Z,1.80
2022-08-04T20:04:28.089Z,1.90
2022-08-04T20:06:58.352Z,1.70
2022-08-04T20:09:27.164Z,1.67
2022-08-04T20:11:56.913Z,1.77
2022-08-04T20:14:31.131Z,2.15
2022-08-04T20:16:58.863Z,2.10
2022-08-04T20:19:25.945Z,2.40
2022-08-04T20:21:56.531Z,2.05
2022-08-04T20:24:38.875Z,2.30
2022-08-04T20:27:14.661Z,2.50
2022-08-04T20:29:43.236Z,2.25
2022-08-04T20:32:13.395Z,2.03
2022-08-04T20:34:42.248Z,2.22
2022-08-04T20:37:10.113Z,2.40
2022-08-04T20:39:37.727Z,2.20
2022-08-04T20:42:04.927Z,2.17
2022-08-04T20:44:33.578Z,2.00
2022-08-04T20:47:01.519Z,2.28
2022-08-04T20:49:35.437Z,2.05
2022-08-04T20:52:12.084Z,2.58
2022-08-04T20:54:42.045Z,1.95
2022-08-04T20:57:16.887Z,2.92
2022-08-04T20:59:50.250Z,1.98
2022-08-04T21:02:20.238Z,2.40
2022-08-04T21:07:36.441Z,2.20
2022-08-04T21:10:08.981Z,2.42
2022-08-04T21:12:36.003Z,2.35
2022-08-04T21:15:14.105Z,2.75
2022-08-04T21:17:59.523Z,1.95
2022-08-04T21:20:32.453Z,2.50
2022-08-04T21:23:02.177Z,2.75
2022-08-04T21:25:30.891Z,2.60
2022-08-04T21:27:58.865Z,2.88
2022-08-04T21:30:37.098Z,2.15
2022-08-04T21:33:18.587Z,2.22
2022-08-04T21:35:46.914Z,2.38
2022-08-04T21:38:17.144Z,2.23
2022-08-04T21:41:01.800Z,2.40
2022-08-04T21:43:30.034Z,2.38
2022-08-04T21:46:09.908Z,2.10
2022-08-04T21:48:38.555Z,2.47
2022-08-04T21:51:22.004Z,2.05
2022-08-04T21:54:03.718Z,2.20
2022-08-04T21:56:30.745Z,2.60
2022-08-04T21:58:58.975Z,2.10
2022-08-04T22:01:49.862Z,2.28
2022-08-04T22:04:13.896Z,1.88
2022-08-04T22:06:41.973Z,2.47
2022-08-04T22:09:15.084Z,2.30
2022-08-04T22:11:49.244Z,1.83
2022-08-04T22:17:05.497Z,2.22
2022-08-04T22:19:50.236Z,2.60
2022-08-04T22:22:26.196Z,2.42
2022-08-04T22:24:53.869Z,2.22
2022-08-04T22:27:39.437Z,2.22
2022-08-04T22:30:13.340Z,2.20
2022-08-04T22:32:45.322Z,2.08
2022-08-04T22:35:36.586Z,2.00
2022-08-04T22:38:06.372Z,2.40
2022-08-04T22:40:38.164Z,2.00
2022-08-04T22:43:31.148Z,2.40
2022-08-04T22:45:52.205Z,2.15
2022-08-04T22:48:19.278Z,2.17
2022-08-04T22:50:46.295Z,2.38
2022-08-04T22:53:17.729Z,2.53
2022-08-04T22:56:07.026Z,2.40
2022-08-04T22:58:32.310Z,2.38
2022-08-04T23:00:59.781Z,2.30
2022-08-04T23:03:36.913Z,2.53
2022-08-04T23:06:10.950Z,2.10
2022-08-04T23:08:38.832Z,2.30
2022-08-04T23:11:10.449Z,2.00
2022-08-04T23:13:37.679Z,2.20
2022-08-04T23:16:05.768Z,2.25
2022-08-04T23:18:36.847Z,2.33
2022-08-04T23:21:08.974Z,2.22
2022-08-04T23:23:36.973Z,2.30
2022-08-04T23:26:12.286Z,2.38
2022-08-04T23:28:39.400Z,2.40
2022-08-04T23:31:06.651Z,2.25
2022-08-04T23:33:49.149Z,2.40
2022-08-04T23:36:17.951Z,2.65
2022-08-04T23:38:44.988Z,2.60
2022-08-04T23:41:13.704Z,2.50
2022-08-04T23:43:55.172Z,2.78
2022-08-04T23:46:22.878Z,2.20
2022-08-04T23:48:51.883Z,2.65
2022-08-04T23:51:19.436Z,2.23
2022-08-04T23:54:03.182Z,2.30
2022-08-04T23:56:31.005Z,2.47
2022-08-04T23:59:00.205Z,2.30
